createdAt,value
2019-01-26T00:00:33.676Z,12.67
2019-01-26T00:03:02.373Z,8.60
2019-01-26T00:05:30.989Z,15.30
2019-01-26T00:07:59.677Z,14.20
2019-01-26T00:10:28.301Z,15.17
2019-01-26T00:12:56.982Z,9.63
2019-01-26T00:15:25.994Z,11.80
2019-01-26T00:17:54.655Z,24.50
2019-01-26T00:20:23.277Z,13.00
2019-01-26T00:22:51.987Z,16.40
2019-01-26T00:25:20.657Z,10.63
2019-01-26T00:27:49.278Z,12.97
2019-01-26T00:30:18.094Z,17.80
2019-01-26T00:32:46.711Z,10.37
2019-01-26T00:35:15.394Z,8.53
2019-01-26T00:37:44.019Z,10.20
2019-01-26T00:40:13.402Z,12.97
2019-01-26T00:42:42.027Z,14.67
2019-01-26T00:45:12.817Z,16.87
2019-01-26T00:47:41.507Z,17.33
2019-01-26T00:50:12.147Z,14.30
2019-01-26T00:52:40.766Z,11.53
2019-01-26T00:55:10.490Z,24.00
2019-01-26T00:57:39.184Z,24.63
2019-01-26T01:00:23.321Z,14.60
2019-01-26T01:02:51.950Z,17.87
2019-01-26T01:05:20.857Z,12.17
2019-01-26T01:07:49.575Z,16.07
2019-01-26T01:10:19.619Z,21.30
2019-01-26T01:12:48.399Z,13.80
2019-01-26T01:15:19.555Z,16.47
2019-01-26T01:17:48.578Z,12.30
2019-01-26T01:20:17.951Z,11.87
2019-01-26T01:22:46.757Z,15.57
2019-01-26T01:25:15.452Z,16.50
2019-01-26T01:27:44.136Z,7.07
2019-01-26T01:30:21.760Z,9.57
2019-01-26T01:32:50.540Z,6.80
2019-01-26T01:35:19.156Z,13.00
2019-01-26T01:37:47.769Z,10.20
2019-01-26T01:40:18.154Z,12.40
2019-01-26T01:42:46.763Z,9.33
2019-01-26T01:45:23.093Z,11.50
2019-01-26T01:47:51.727Z,10.13
2019-01-26T01:50:20.416Z,8.00
2019-01-26T01:52:49.025Z,12.97
2019-01-26T01:55:17.854Z,12.77
2019-01-26T01:57:46.630Z,13.47
2019-01-26T02:00:18.511Z,13.30
2019-01-26T02:02:47.118Z,7.53
2019-01-26T02:05:15.731Z,9.10
2019-01-26T02:07:44.378Z,7.80
2019-01-26T02:10:15.761Z,14.83
2019-01-26T02:12:44.465Z,11.17
2019-01-26T02:15:14.089Z,5.90
2019-01-26T02:17:42.692Z,12.00
2019-01-26T02:20:20.320Z,12.57
2019-01-26T02:22:48.921Z,11.43
2019-01-26T02:25:17.708Z,11.73
2019-01-26T02:27:46.340Z,9.03
2019-01-26T02:30:22.618Z,14.50
2019-01-26T02:32:51.224Z,12.50
2019-01-26T02:35:20.008Z,15.60
2019-01-26T02:37:48.685Z,7.93
2019-01-26T02:40:18.037Z,10.93
2019-01-26T02:42:46.677Z,8.70
2019-01-26T02:45:16.359Z,10.03
2019-01-26T02:47:44.970Z,9.47
2019-01-26T02:50:18.277Z,17.63
2019-01-26T02:52:46.884Z,13.27
2019-01-26T02:55:15.507Z,13.87
2019-01-26T02:57:44.205Z,19.30
2019-01-26T03:00:23.590Z,12.33
2019-01-26T03:02:52.215Z,8.13
2019-01-26T03:05:20.949Z,11.33
2019-01-26T03:07:49.567Z,13.27
2019-01-26T03:10:20.189Z,34.53
2019-01-26T03:12:48.884Z,9.17
2019-01-26T03:15:19.812Z,13.23
2019-01-26T03:17:48.579Z,15.57
2019-01-26T03:20:17.993Z,11.70
2019-01-26T03:22:46.719Z,13.10
2019-01-26T03:25:17.443Z,16.53
2019-01-26T03:27:46.423Z,11.10
2019-01-26T03:30:20.333Z,6.17
2019-01-26T03:32:49.358Z,11.90
2019-01-26T03:35:17.977Z,10.03
2019-01-26T03:37:46.699Z,17.70
2019-01-26T03:40:18.076Z,17.20
2019-01-26T03:42:46.691Z,10.53
2019-01-26T03:45:16.567Z,13.63
2019-01-26T03:47:45.184Z,16.77
2019-01-26T03:50:15.559Z,12.27
2019-01-26T03:52:44.177Z,12.50
2019-01-26T03:55:15.932Z,11.57
2019-01-26T03:57:44.547Z,14.77
2019-01-26T04:00:21.763Z,23.13
2019-01-26T04:02:50.377Z,12.77
2019-01-26T04:05:19.055Z,14.37
2019-01-26T04:07:47.670Z,16.93
2019-01-26T04:10:16.669Z,15.53
2019-01-26T04:12:45.298Z,9.30
2019-01-26T04:15:17.188Z,9.60
2019-01-26T04:17:45.859Z,11.50
2019-01-26T04:20:19.394Z,9.30
2019-01-26T04:22:48.170Z,13.17
2019-01-26T04:25:16.799Z,13.90
2019-01-26T04:27:45.608Z,10.80
2019-01-26T04:30:19.938Z,8.97
2019-01-26T04:32:48.644Z,16.00
2019-01-26T04:35:17.254Z,17.47
2019-01-26T04:37:46.014Z,29.60
2019-01-26T04:40:18.517Z,13.40
2019-01-26T04:42:47.400Z,13.77
2019-01-26T04:45:18.887Z,20.27
2019-01-26T04:47:47.546Z,20.20
2019-01-26T04:50:18.163Z,16.40
2019-01-26T04:52:46.867Z,13.13
2019-01-26T04:55:16.752Z,10.57
2019-01-26T04:57:45.362Z,9.03
2019-01-26T05:00:22.483Z,10.27
2019-01-26T05:02:51.104Z,18.57
2019-01-26T05:05:19.790Z,21.90
2019-01-26T05:07:48.485Z,20.10
2019-01-26T05:10:19.290Z,12.90
2019-01-26T05:12:48.187Z,9.57
2019-01-26T05:15:17.755Z,11.40
2019-01-26T05:17:46.427Z,9.60
2019-01-26T05:20:17.950Z,13.90
2019-01-26T05:22:46.616Z,21.47
2019-01-26T05:25:15.379Z,16.60
2019-01-26T05:27:44.026Z,12.63
2019-01-26T05:30:18.313Z,7.30
2019-01-26T05:32:46.938Z,13.07
2019-01-26T05:35:15.636Z,14.80
2019-01-26T05:37:44.253Z,11.10
2019-01-26T05:40:15.215Z,21.83
2019-01-26T05:42:43.853Z,19.43
2019-01-26T05:45:15.137Z,19.87
2019-01-26T05:47:49.058Z,14.30
2019-01-26T05:50:23.055Z,22.50
2019-01-26T05:52:51.745Z,9.23
2019-01-26T05:55:20.371Z,8.57
2019-01-26T05:57:49.260Z,20.57
2019-01-26T06:00:27.224Z,10.37
2019-01-26T06:02:55.910Z,14.80
2019-01-26T06:05:24.552Z,31.10
2019-01-26T06:07:53.254Z,29.63
2019-01-26T06:10:21.957Z,15.57
2019-01-26T06:12:50.612Z,12.00
2019-01-26T06:15:19.251Z,16.90
2019-01-26T06:17:54.787Z,24.30
2019-01-26T06:20:18.409Z,18.47
2019-01-26T06:22:47.084Z,12.07
2019-01-26T06:25:18.768Z,11.13
2019-01-26T06:27:47.388Z,12.83
2019-01-26T06:30:19.247Z,21.40
2019-01-26T06:32:47.869Z,24.80
2019-01-26T06:35:16.646Z,22.03
2019-01-26T06:37:45.330Z,18.70
2019-01-26T06:40:16.540Z,26.63
2019-01-26T06:42:45.199Z,20.23
2019-01-26T06:45:16.605Z,15.73
2019-01-26T06:47:45.347Z,17.87
2019-01-26T06:50:18.201Z,22.93
2019-01-26T06:52:46.926Z,18.87
2019-01-26T06:55:15.729Z,21.77
2019-01-26T06:57:44.641Z,19.83
2019-01-26T07:00:16.323Z,17.47
2019-01-26T07:02:44.947Z,19.17
2019-01-26T07:05:18.342Z,12.30
2019-01-26T07:07:47.012Z,10.23
2019-01-26T07:10:15.641Z,17.73
2019-01-26T07:12:44.354Z,18.60
2019-01-26T07:15:13.675Z,10.23
2019-01-26T07:17:42.403Z,12.70
2019-01-26T07:20:14.008Z,22.83
2019-01-26T07:22:42.713Z,17.90
2019-01-26T07:25:12.895Z,20.07
2019-01-26T07:27:41.632Z,23.17
2019-01-26T07:30:22.478Z,19.33
2019-01-26T07:32:55.440Z,24.43
2019-01-26T07:35:28.477Z,20.87
2019-01-26T07:37:57.088Z,20.30
2019-01-26T07:40:26.180Z,15.77
2019-01-26T07:42:54.799Z,17.77
2019-01-26T07:45:23.496Z,16.93
2019-01-26T07:47:52.110Z,16.00
2019-01-26T07:50:24.728Z,12.77
2019-01-26T07:52:53.430Z,16.40
2019-01-26T07:55:25.755Z,14.73
2019-01-26T07:57:59.405Z,13.07
2019-01-26T08:00:36.258Z,16.53
2019-01-26T08:03:04.967Z,15.47
2019-01-26T08:05:36.793Z,13.97
2019-01-26T08:08:05.500Z,12.83
2019-01-26T08:10:34.128Z,15.37
2019-01-26T08:13:02.806Z,20.20
2019-01-26T08:15:33.285Z,27.40
2019-01-26T08:18:03.472Z,18.90
2019-01-26T08:20:32.107Z,21.37
2019-01-26T08:23:00.793Z,23.27
2019-01-26T08:25:29.530Z,9.23
2019-01-26T08:27:59.681Z,11.33
2019-01-26T08:30:28.316Z,12.67
2019-01-26T08:32:57.094Z,14.10
2019-01-26T08:35:25.732Z,11.77
2019-01-26T08:37:54.426Z,15.20
2019-01-26T08:40:23.198Z,14.83
2019-01-26T08:42:51.863Z,11.20
2019-01-26T08:45:20.536Z,16.70
2019-01-26T08:47:49.620Z,25.53
2019-01-26T08:50:20.357Z,15.10
2019-01-26T08:52:49.052Z,14.93
2019-01-26T08:55:18.286Z,12.20
2019-01-26T08:57:47.148Z,12.90
2019-01-26T09:00:18.839Z,8.73
2019-01-26T09:02:56.138Z,26.33
2019-01-26T09:05:29.623Z,11.50
2019-01-26T09:08:00.385Z,18.80
2019-01-26T09:10:28.799Z,14.43
2019-01-26T09:12:57.452Z,13.80
2019-01-26T09:15:26.203Z,13.83
2019-01-26T09:17:56.501Z,19.73
2019-01-26T09:20:25.192Z,12.53
2019-01-26T09:22:53.932Z,13.27
2019-01-26T09:25:22.644Z,10.90
2019-01-26T09:27:51.497Z,13.20
2019-01-26T09:30:21.585Z,18.03
2019-01-26T09:32:50.551Z,13.53
2019-01-26T09:35:19.559Z,20.00
2019-01-26T09:37:48.346Z,12.77
2019-01-26T09:40:21.582Z,13.63
2019-01-26T09:42:50.287Z,14.20
2019-01-26T09:45:20.415Z,16.47
2019-01-26T09:47:49.110Z,13.13
2019-01-26T09:50:21.296Z,10.50
2019-01-26T09:52:50.050Z,11.77
2019-01-26T09:55:20.602Z,14.67
2019-01-26T09:57:49.288Z,13.20
2019-01-26T10:00:26.162Z,12.97
2019-01-26T10:02:54.962Z,11.83
2019-01-26T10:05:23.684Z,15.63
2019-01-26T10:07:52.347Z,11.00
2019-01-26T10:10:21.865Z,9.37
2019-01-26T10:12:50.532Z,15.60
2019-01-26T10:15:22.286Z,11.00
2019-01-26T10:17:50.902Z,9.03
2019-01-26T10:20:22.318Z,13.93
2019-01-26T10:22:51.026Z,9.63
2019-01-26T10:25:19.716Z,12.50
2019-01-26T10:27:52.477Z,11.73
2019-01-26T10:30:28.829Z,12.77
2019-01-26T10:32:57.500Z,9.67
2019-01-26T10:35:27.747Z,10.43
2019-01-26T10:37:59.485Z,12.77
2019-01-26T10:40:44.567Z,12.40
2019-01-26T10:43:14.829Z,10.00
2019-01-26T10:45:43.454Z,10.57
2019-01-26T10:48:12.128Z,13.77
2019-01-26T10:50:40.773Z,15.47
2019-01-26T10:53:13.412Z,10.80
2019-01-26T10:55:42.027Z,11.90
2019-01-26T10:58:16.210Z,9.20
2019-01-26T11:00:44.980Z,10.30
2019-01-26T11:03:19.454Z,10.93
2019-01-26T11:05:48.160Z,11.80
2019-01-26T11:08:21.021Z,11.13
2019-01-26T11:10:49.697Z,8.83
2019-01-26T11:13:19.892Z,10.07
2019-01-26T11:15:48.586Z,12.10
2019-01-26T11:18:17.343Z,10.77
2019-01-26T11:20:45.980Z,9.20
2019-01-26T11:23:20.247Z,14.33
2019-01-26T11:25:48.867Z,7.60
2019-01-26T11:28:20.621Z,5.10
2019-01-26T11:30:49.251Z,11.50
2019-01-26T11:33:17.956Z,4.90
2019-01-26T11:35:46.594Z,7.37
2019-01-26T11:38:15.304Z,13.90
2019-01-26T11:40:47.070Z,14.20
2019-01-26T11:43:15.748Z,11.93
2019-01-26T11:45:47.418Z,7.10
2019-01-26T11:48:17.691Z,5.97
2019-01-26T11:51:02.846Z,8.80
2019-01-26T11:53:31.543Z,8.00
2019-01-26T11:56:01.756Z,7.67
2019-01-26T11:58:30.460Z,9.73
2019-01-26T12:01:07.832Z,8.03
2019-01-26T12:03:38.042Z,9.20
2019-01-26T12:06:11.311Z,4.90
2019-01-26T12:08:41.526Z,12.37
2019-01-26T12:11:11.693Z,10.70
2019-01-26T12:13:41.212Z,12.30
2019-01-26T12:16:12.993Z,7.73
2019-01-26T12:18:41.686Z,9.23
2019-01-26T12:21:11.956Z,16.13
2019-01-26T12:23:43.650Z,13.83
2019-01-26T12:26:12.339Z,8.10
2019-01-26T12:28:41.057Z,6.93
2019-01-26T12:31:11.196Z,6.80
2019-01-26T12:33:39.966Z,8.43
2019-01-26T12:36:08.608Z,6.17
2019-01-26T12:38:37.321Z,4.47
2019-01-26T12:41:05.946Z,6.90
2019-01-26T12:43:34.659Z,8.27
2019-01-26T12:46:03.472Z,5.03
2019-01-26T12:48:32.198Z,9.53
2019-01-26T12:51:00.810Z,8.63
2019-01-26T12:53:30.755Z,8.77
2019-01-26T12:55:59.384Z,5.30
2019-01-26T12:58:28.048Z,9.17
2019-01-26T13:00:56.682Z,8.37
2019-01-26T13:03:25.404Z,5.83
2019-01-26T13:05:54.148Z,8.40
2019-01-26T13:08:22.858Z,7.97
2019-01-26T13:10:54.577Z,6.47
2019-01-26T13:13:23.228Z,9.03
2019-01-26T13:15:51.861Z,7.80
2019-01-26T13:18:20.690Z,7.30
2019-01-26T13:20:49.320Z,37.80
2019-01-26T13:23:23.101Z,20.37
2019-01-26T13:25:51.510Z,18.83
2019-01-26T13:28:21.639Z,28.90
2019-01-26T13:30:51.902Z,18.03
2019-01-26T13:33:22.076Z,18.90
2019-01-26T13:35:50.770Z,38.80
2019-01-26T13:38:19.413Z,21.47
2019-01-26T13:40:48.103Z,20.30
2019-01-26T13:43:16.734Z,17.50
2019-01-26T13:45:45.427Z,12.43
2019-01-26T13:48:14.059Z,19.30
2019-01-26T13:50:42.757Z,16.77
2019-01-26T13:53:11.448Z,20.97
2019-01-26T13:55:40.098Z,25.47
2019-01-26T13:58:08.793Z,27.10
2019-01-26T14:00:38.380Z,17.03
2019-01-26T14:03:07.181Z,9.30
2019-01-26T14:05:38.844Z,12.10
2019-01-26T14:08:12.041Z,14.27
2019-01-26T14:10:52.280Z,6.70
2019-01-26T14:13:21.041Z,7.90
2019-01-26T14:15:49.785Z,8.40
2019-01-26T14:18:18.545Z,11.57
2019-01-26T14:20:49.954Z,12.17
2019-01-26T14:23:21.271Z,8.83
2019-01-26T14:25:51.602Z,4.70
2019-01-26T14:28:20.640Z,5.57
2019-01-26T14:30:51.975Z,21.83
2019-01-26T14:33:20.680Z,24.53
2019-01-26T14:35:52.169Z,28.27
2019-01-26T14:38:24.075Z,25.57
2019-01-26T14:40:52.712Z,36.30
2019-01-26T14:43:21.401Z,32.50
2019-01-26T14:45:50.115Z,21.43
2019-01-26T14:48:21.131Z,35.60
2019-01-26T14:50:49.785Z,122.90
2019-01-26T14:53:18.458Z,31.03
2019-01-26T14:55:47.127Z,35.00
2019-01-26T14:58:15.847Z,29.30
2019-01-26T15:00:44.567Z,30.30
2019-01-26T15:03:14.827Z,22.37
2019-01-26T15:05:43.481Z,13.47
2019-01-26T15:08:15.310Z,17.93
2019-01-26T15:10:43.933Z,9.90
2019-01-26T15:13:12.641Z,5.80
2019-01-26T15:15:41.391Z,5.37
2019-01-26T15:18:11.809Z,9.60
2019-01-26T15:20:42.084Z,21.60
2019-01-26T15:23:14.322Z,17.83
2019-01-26T15:25:42.967Z,19.67
2019-01-26T15:28:19.184Z,18.97
2019-01-26T15:30:47.851Z,10.83
2019-01-26T15:33:19.599Z,6.80
2019-01-26T15:35:48.300Z,2.97
2019-01-26T15:38:17.037Z,7.90
2019-01-26T15:40:47.407Z,4.00
2019-01-26T15:43:16.044Z,3.93
2019-01-26T15:45:45.078Z,2.20
2019-01-26T15:48:13.761Z,3.27
2019-01-26T15:50:42.387Z,2.70
2019-01-26T15:53:13.506Z,5.60
2019-01-26T15:55:45.284Z,5.10
2019-01-26T15:58:13.998Z,4.63
2019-01-26T16:00:46.217Z,2.33
2019-01-26T16:03:14.847Z,3.37
2019-01-26T16:05:46.152Z,6.20
2019-01-26T16:08:14.940Z,5.10
2019-01-26T16:10:43.667Z,4.30
2019-01-26T16:13:12.384Z,6.37
2019-01-26T16:15:42.583Z,4.77
2019-01-26T16:18:13.233Z,3.30
2019-01-26T16:20:41.785Z,2.43
2019-01-26T16:23:12.510Z,1.67
2019-01-26T16:25:40.957Z,3.00
2019-01-26T16:28:09.585Z,2.17
2019-01-26T16:30:38.411Z,1.13
2019-01-26T16:33:07.100Z,2.90
2019-01-26T16:35:35.724Z,2.37
2019-01-26T16:38:07.546Z,1.27
2019-01-26T16:40:36.974Z,2.20
2019-01-26T16:43:07.134Z,2.50
2019-01-26T16:45:38.116Z,2.00
2019-01-26T16:48:08.799Z,2.20
2019-01-26T16:50:38.912Z,21.63
2019-01-26T16:53:07.620Z,7.10
2019-01-26T16:55:36.273Z,2.47
2019-01-26T16:58:05.534Z,3.50
2019-01-26T17:00:40.280Z,1.47
2019-01-26T17:03:10.642Z,2.40
2019-01-26T17:05:40.245Z,0.90
2019-01-26T17:08:17.404Z,0.93
2019-01-26T17:10:49.606Z,2.40
2019-01-26T17:13:22.782Z,1.07
2019-01-26T17:15:51.427Z,3.10
2019-01-26T17:18:20.305Z,1.40
2019-01-26T17:20:52.911Z,1.43
2019-01-26T17:23:21.562Z,1.67
2019-01-26T17:25:50.288Z,2.90
2019-01-26T17:28:22.033Z,1.30
2019-01-26T17:30:50.659Z,0.50
2019-01-26T17:33:19.361Z,0.73
2019-01-26T17:35:48.184Z,0.90
2019-01-26T17:38:18.290Z,2.33
2019-01-26T17:40:54.199Z,0.57
2019-01-26T17:46:47.742Z,0.60
2019-01-26T17:49:16.555Z,1.10
2019-01-26T17:51:45.351Z,20.30
2019-01-26T17:54:15.801Z,32.50
2019-01-26T17:56:44.508Z,26.00
2019-01-26T17:59:16.065Z,33.47
2019-01-26T18:01:44.761Z,24.37
2019-01-26T18:04:21.240Z,25.03
2019-01-26T18:06:55.496Z,22.03
2019-01-26T18:09:24.410Z,8.27
2019-01-26T18:11:53.041Z,1.03
2019-01-26T18:14:21.910Z,10.80
2019-01-26T18:16:50.531Z,31.13
2019-01-26T18:19:19.368Z,27.10
2019-01-26T18:21:47.992Z,23.70
2019-01-26T18:24:18.257Z,22.23
2019-01-26T18:26:46.928Z,22.70
2019-01-26T18:29:15.724Z,22.90
2019-01-26T18:31:46.946Z,24.83
2019-01-26T18:34:17.619Z,18.97
2019-01-26T18:36:48.074Z,25.40
2019-01-26T18:39:16.897Z,24.20
2019-01-26T18:41:47.913Z,21.00
2019-01-26T18:44:16.807Z,19.87
2019-01-26T18:46:48.570Z,21.73
2019-01-26T18:49:17.384Z,17.43
2019-01-26T18:51:46.221Z,21.37
2019-01-26T18:54:16.722Z,22.87
2019-01-26T18:56:45.373Z,21.87
2019-01-26T18:59:14.175Z,32.63
2019-01-26T19:01:42.949Z,31.57
2019-01-26T19:04:15.099Z,33.37
2019-01-26T19:06:43.820Z,26.50
2019-01-26T19:09:12.630Z,37.73
2019-01-26T19:11:41.335Z,36.47
2019-01-26T19:14:10.545Z,45.37
2019-01-26T19:16:41.264Z,83.70
2019-01-26T19:19:10.023Z,53.80
2019-01-26T19:21:40.273Z,41.23
2019-01-26T19:24:13.096Z,60.47
2019-01-26T19:26:41.884Z,49.33
2019-01-26T19:29:10.807Z,57.90
2019-01-26T19:31:39.512Z,45.03
2019-01-26T19:34:12.624Z,42.00
2019-01-26T19:36:41.365Z,23.53
2019-01-26T19:39:10.014Z,2.20
2019-01-26T19:41:38.701Z,1.40
2019-01-26T19:44:08.920Z,0.50
2019-01-26T19:46:37.584Z,0.50
2019-01-26T19:49:09.150Z,20.93
2019-01-26T19:51:40.232Z,19.77
2019-01-26T19:54:11.139Z,30.30
2019-01-26T19:56:40.060Z,25.80
2019-01-26T19:59:11.494Z,20.13
2019-01-26T20:01:40.258Z,23.27
2019-01-26T20:04:09.220Z,24.17
2019-01-26T20:06:38.024Z,15.20
2019-01-26T20:09:09.954Z,3.83
2019-01-26T20:11:40.210Z,0.20
2019-01-26T20:14:10.107Z,0.40
2019-01-26T20:16:38.947Z,0.30
2019-01-26T20:19:07.619Z,0.57
2019-01-26T20:21:36.369Z,1.13
2019-01-26T20:24:05.555Z,0.23
2019-01-26T20:26:34.251Z,0.20
2019-01-26T20:29:03.232Z,18.70
2019-01-26T20:31:33.619Z,17.13
2019-01-26T20:34:02.281Z,19.70
2019-01-26T20:36:32.921Z,21.17
2019-01-26T20:39:01.745Z,1.63
2019-01-26T20:41:31.724Z,0.30
2019-01-26T20:44:00.337Z,0.20
2019-01-26T20:46:33.172Z,0.30
2019-01-26T20:49:01.856Z,0.47
2019-01-26T20:51:30.575Z,11.67
2019-01-26T20:53:59.267Z,24.97
2019-01-26T20:56:29.371Z,24.00
2019-01-26T20:58:58.117Z,18.83
2019-01-26T21:01:26.944Z,23.43
2019-01-26T21:03:55.696Z,19.17
2019-01-26T21:06:24.352Z,15.47
2019-01-26T21:08:54.941Z,15.90
2019-01-26T21:11:23.555Z,17.03
2019-01-26T21:13:52.285Z,30.60
2019-01-26T21:16:21.235Z,26.47
2019-01-26T21:18:51.037Z,21.63
2019-01-26T21:21:19.756Z,22.53
2019-01-26T21:23:50.139Z,21.50
2019-01-26T21:26:18.895Z,18.17
2019-01-26T21:28:51.889Z,14.33
2019-01-26T21:31:20.632Z,13.53
2019-01-26T21:33:49.363Z,14.10
2019-01-26T21:36:18.068Z,12.40
2019-01-26T21:38:50.392Z,10.57
2019-01-26T21:41:19.047Z,7.60
2019-01-26T21:43:49.260Z,19.37
2019-01-26T21:46:18.147Z,29.37
2019-01-26T21:48:46.905Z,22.30
2019-01-26T21:51:15.644Z,35.77
2019-01-26T21:53:44.444Z,22.10
2019-01-26T21:56:16.179Z,27.37
2019-01-26T21:58:47.779Z,13.80
2019-01-26T22:01:16.474Z,7.00
2019-01-26T22:03:47.998Z,18.13
2019-01-26T22:06:16.651Z,10.80
2019-01-26T22:08:45.228Z,20.43
2019-01-26T22:11:15.195Z,19.40
2019-01-26T22:13:43.784Z,18.50
2019-01-26T22:16:12.372Z,25.03
2019-01-26T22:18:41.089Z,17.43
2019-01-26T22:21:09.707Z,9.57
2019-01-26T22:23:38.552Z,12.23
2019-01-26T22:26:08.783Z,20.23
2019-01-26T22:28:37.583Z,21.30
2019-01-26T22:31:06.270Z,18.20
2019-01-26T22:33:34.899Z,13.77
2019-01-26T22:36:03.619Z,20.20
2019-01-26T22:38:32.239Z,24.93
2019-01-26T22:41:02.342Z,24.93
2019-01-26T22:43:31.007Z,21.63
2019-01-26T22:45:59.687Z,24.30
2019-01-26T22:48:28.319Z,25.97
2019-01-26T22:50:57.015Z,36.53
2019-01-26T22:53:28.147Z,24.80
2019-01-26T22:55:56.835Z,29.37
2019-01-26T22:58:25.527Z,66.23
2019-01-26T23:01:00.207Z,42.73
2019-01-26T23:03:31.926Z,23.77
2019-01-26T23:06:03.588Z,24.43
2019-01-26T23:08:35.369Z,25.37
2019-01-26T23:11:07.159Z,21.70
2019-01-26T23:13:40.419Z,36.93
2019-01-26T23:16:23.371Z,50.23
2019-01-26T23:19:08.614Z,71.87
2019-01-26T23:21:52.302Z,99.57
2019-01-26T23:24:41.394Z,75.10
2019-01-26T23:27:13.932Z,129.83
2019-01-26T23:30:02.406Z,30.40
2019-01-26T23:32:31.122Z,22.90
2019-01-26T23:34:59.806Z,20.43
2019-01-26T23:37:28.627Z,85.87
2019-01-26T23:39:58.808Z,119.67
2019-01-26T23:42:27.499Z,32.27
2019-01-26T23:44:56.128Z,64.13
2019-01-26T23:47:24.801Z,39.07
2019-01-26T23:49:54.889Z,28.73
2019-01-26T23:52:23.617Z,191.83
2019-01-26T23:54:52.301Z,52.03
2019-01-26T23:57:21.031Z,48.30
2019-01-26T23:59:50.144Z,143.70
